M I D A S
Marine Information and Data Acquisition System
Tripno 2287 of the Zeeleeuw from 2012-04-11 06:49:18 to 2012-04-11 14:26:17
Back to CruiseResearch ActivitiesStationsMapUnderway DataData graphs

EquipmentUnitsComment
TimeDGPSUTC
LatitudeDGPSDM.mWGS84
LongitudeDGPSDM.mWGS84
HeadingGyrodeg 
SOGDGPSknotsSpeed over ground
COGDGPSdegCourse over ground
DepthEcho soundermeters200 kHz
Missing or incorrect values are displayed as -999
Navigation data collected by the RV Zeeleeuw from 2012-04-11 06:29:50 to 2012-04-11 14:31:55
Time Latitude Longitude Heading SOG COG Depth
2012-04-11 06:30:56 51°13.636 2°56.019 125.8 0.1 302 -999
2012-04-11 06:31:56 51°13.637 2°56.019 125.7 0.2 304 -999
2012-04-11 06:32:55 51°13.637 2°56.019 125.7 0.3 118 -999
2012-04-11 06:33:55 51°13.636 2°56.02 125.7 -999 308 -999
2012-04-11 06:34:56 51°13.636 2°56.019 125.7 0.1 325 -999
2012-04-11 06:35:56 51°13.637 2°56.018 125.7 0.1 349 -999
2012-04-11 06:36:55 51°13.636 2°56.019 125.7 0.1 118 -999
2012-04-11 06:37:56 51°13.636 2°56.019 125.7 0.1 341 -999
2012-04-11 06:38:55 51°13.635 2°56.02 125.7 0.1 68 -999
2012-04-11 06:39:55 51°13.635 2°56.02 125.6 0.1 174 -999
2012-04-11 06:40:56 51°13.635 2°56.019 125.5 -999 328 -999
2012-04-11 06:41:55 51°13.636 2°56.018 125.7 0.1 341 -999
2012-04-11 06:42:56 51°13.635 2°56.018 125.5 -999 208 -999
2012-04-11 06:43:55 51°13.636 2°56.019 125.1 0.1 100 -999
2012-04-11 06:44:56 51°13.636 2°56.019 125 0.2 159 -999
2012-04-11 06:45:56 51°13.636 2°56.019 125 -999 290 -999
2012-04-11 06:46:56 51°13.637 2°56.019 125 0.1 344 -999
2012-04-11 06:47:55 51°13.637 2°56.019 125 -999 359 -999
2012-04-11 06:48:55 51°13.637 2°56.019 127.8 -999 96 -999
2012-04-11 06:49:55 51°13.636 2°56.02 127.1 0.1 1 -999
2012-04-11 06:50:55 51°13.635 2°56.02 120.7 0.2 164 -999
2012-04-11 06:51:55 51°13.634 2°56.019 110.1 0.1 310 -999
2012-04-11 06:52:56 51°13.644 2°55.974 110.1 3 290 -999
2012-04-11 06:53:56 51°13.668 2°55.884 117.6 3.9 296 -999
2012-04-11 06:54:55 51°13.71 2°55.789 132.4 5 313 -999
2012-04-11 06:55:55 51°13.768 2°55.699 141.7 4.8 320 -999
2012-04-11 06:56:54 51°13.834 2°55.638 164.6 4.4 342 -999
2012-04-11 06:57:55 51°13.912 2°55.63 195 4.5 10 -999
2012-04-11 06:58:54 51°13.965 2°55.666 223 2.6 35 -999
2012-04-11 06:59:55 51°13.978 2°55.659 276.5 2.1 277 -999
2012-04-11 07:00:55 51°14.036 2°55.534 315.1 7.9 315 11.1
2012-04-11 07:01:55 51°14.154 2°55.397 330.5 9.1 328 10.8
2012-04-11 07:02:54 51°14.286 2°55.275 333.2 9.6 331 -999
2012-04-11 07:03:55 51°14.426 2°55.146 332.7 9.7 331 10.9
2012-04-11 07:04:53 51°14.576 2°55.009 329.7 11.4 326 12.3
2012-04-11 07:05:52 51°14.737 2°54.819 327.1 12.8 323 12
2012-04-11 07:06:52 51°14.913 2°54.622 328.9 13 326 12.2
2012-04-11 07:07:51 51°15.083 2°54.426 326.8 12.8 323 11.5
2012-04-11 07:08:52 51°15.25 2°54.204 323.1 12.8 321 11.8
2012-04-11 07:09:52 51°15.418 2°53.995 327.7 12.8 325 12
2012-04-11 07:10:52 51°15.584 2°53.794 325 12.4 320 12
2012-04-11 07:11:52 51°15.748 2°53.592 328.9 12.5 325 12.7
2012-04-11 07:12:51 51°15.918 2°53.406 329.6 12.7 325 12.8
2012-04-11 07:13:52 51°16.1 2°53.229 337 12.6 333 12.6
2012-04-11 07:14:51 51°16.288 2°53.095 340.5 12.6 336 12.9
2012-04-11 07:15:51 51°16.479 2°52.953 338.3 12.6 334 12.6
2012-04-11 07:16:51 51°16.666 2°52.796 337.3 12.7 333 11.7
2012-04-11 07:17:51 51°16.857 2°52.663 341.7 12.5 337 10.1
2012-04-11 07:18:52 51°17.055 2°52.537 341.2 12.4 337 10.3
2012-04-11 07:19:51 51°17.239 2°52.389 335.6 12.6 332 11
2012-04-11 07:20:52 51°17.425 2°52.222 335 12.7 332 11.7
2012-04-11 07:21:52 51°17.612 2°52.067 335.9 12.8 333 11.6
2012-04-11 07:22:52 51°17.802 2°51.935 344.2 12.4 341 10.7
2012-04-11 07:23:51 51°17.996 2°51.82 344.1 12.8 338 11
2012-04-11 07:24:52 51°18.193 2°51.687 340.9 12.7 334 11.8
2012-04-11 07:25:52 51°18.379 2°51.53 337 12.7 332 12.8
2012-04-11 07:26:51 51°18.566 2°51.386 341.5 12.8 336 14
2012-04-11 07:27:52 51°18.759 2°51.238 337.6 12.7 334 14.7
2012-04-11 07:28:51 51°18.95 2°51.105 340.3 12.6 334 15.2
2012-04-11 07:29:52 51°19.14 2°50.945 336.6 12.7 332 15.2
2012-04-11 07:30:52 51°19.334 2°50.808 341.9 12.7 338 14.9
2012-04-11 07:31:52 51°19.526 2°50.666 337.6 12.8 333 12.8
2012-04-11 07:32:51 51°19.711 2°50.513 335.8 12.9 332 12.8
2012-04-11 07:33:52 51°19.907 2°50.367 340.8 12.8 337 14.7
2012-04-11 07:34:51 51°20.098 2°50.233 340.5 12.8 335 15.7
2012-04-11 07:35:51 51°20.286 2°50.078 331.4 12.8 327 18.9
2012-04-11 07:36:52 51°20.449 2°49.851 320.1 12.9 315 21.7
2012-04-11 07:37:52 51°20.608 2°49.615 320.3 13.2 317 23.5
2012-04-11 07:38:52 51°20.776 2°49.394 326.9 13.1 323 23.4
2012-04-11 07:39:52 51°20.953 2°49.19 326.2 13.1 324 22.7
2012-04-11 07:40:52 51°21.119 2°48.982 322.8 12.3 318 20.4
2012-04-11 07:41:51 51°21.272 2°48.774 324.8 12.4 322 21.6
2012-04-11 07:42:52 51°21.448 2°48.602 337.7 12.2 335 22.5
2012-04-11 07:43:52 51°21.642 2°48.487 347.3 12.9 344 23.7
2012-04-11 07:44:52 51°21.844 2°48.387 347.3 12.7 343 23.8
2012-04-11 07:45:52 51°22.046 2°48.278 344 12.8 340 24.4
2012-04-11 07:46:51 51°22.24 2°48.147 342.8 12.9 337 23.1
2012-04-11 07:47:52 51°22.444 2°48.03 347.9 12.7 344 14.6
2012-04-11 07:48:52 51°22.646 2°47.922 343.2 12.9 339 18.4
2012-04-11 07:49:51 51°22.843 2°47.799 342.5 13 337 16.8
2012-04-11 07:50:51 51°23.047 2°47.68 345.3 13.1 341 18.7
2012-04-11 07:51:52 51°23.254 2°47.572 344.2 12.8 341 21.9
2012-04-11 07:52:52 51°23.455 2°47.446 342.7 12.9 340 22.2
2012-04-11 07:53:51 51°23.652 2°47.334 343.1 12.8 339 19.5
2012-04-11 07:54:52 51°23.857 2°47.219 345.6 12.8 343 25.5
2012-04-11 07:55:52 51°24.06 2°47.11 342.8 12.8 339 27
2012-04-11 07:56:51 51°24.252 2°46.974 338.1 12.7 335 27.1
2012-04-11 07:57:51 51°24.446 2°46.836 340.8 12.8 338 30.6
2012-04-11 07:58:52 51°24.646 2°46.7 341 13.1 338 29.1
2012-04-11 07:59:52 51°24.842 2°46.567 340.5 12.8 336 25.8
2012-04-11 08:00:52 51°25.041 2°46.436 339.8 12.8 338 25.2
2012-04-11 08:01:52 51°25.239 2°46.299 337.9 12.9 335 24.1
2012-04-11 08:02:51 51°25.432 2°46.155 337.6 13 335 25
2012-04-11 08:03:52 51°25.634 2°46.019 340.5 12.9 339 24.1
2012-04-11 08:04:52 51°25.831 2°45.89 340.7 12.8 337 25.9
2012-04-11 08:05:52 51°26.024 2°45.743 337 12.8 333 26.4
2012-04-11 08:06:51 51°26.211 2°45.59 335.5 12.8 331 26.6
2012-04-11 08:07:52 51°26.406 2°45.437 338.2 13 335 28.2
2012-04-11 08:08:51 51°26.594 2°45.288 336.8 12.8 332 28.2
2012-04-11 08:09:52 51°26.787 2°45.126 338.2 12.9 333 27.9
2012-04-11 08:10:52 51°26.975 2°44.961 334.4 12.7 331 29
2012-04-11 08:11:52 51°27.168 2°44.813 339.1 12.9 337 27.9
2012-04-11 08:12:52 51°27.36 2°44.665 336.5 12.8 332 26
2012-04-11 08:13:51 51°27.548 2°44.511 337.8 12.8 335 26.4
2012-04-11 08:14:52 51°27.743 2°44.357 337 12.8 333 26.9
2012-04-11 08:15:52 51°27.938 2°44.209 337.6 12.9 335 28.5
2012-04-11 08:16:52 51°28.132 2°44.057 335.8 13 331 30.1
2012-04-11 08:17:51 51°28.318 2°43.902 334.6 12.7 331 31.6
2012-04-11 08:18:52 51°28.514 2°43.748 337.7 12.7 334 30.5
2012-04-11 08:19:52 51°28.705 2°43.592 335.7 12.7 332 29.3
2012-04-11 08:20:52 51°28.897 2°43.442 338.8 12.6 335 29.8
2012-04-11 08:21:52 51°29.092 2°43.303 336.7 12.9 336 27.8
2012-04-11 08:22:51 51°29.284 2°43.161 336.2 12.7 332 32.2
2012-04-11 08:23:52 51°29.489 2°43.067 4 12.8 1 30.9
2012-04-11 08:24:52 51°29.691 2°43.151 24.5 12.5 21 29.9
2012-04-11 08:25:51 51°29.884 2°43.261 21.1 12.6 17 31.3
2012-04-11 08:26:51 51°30.083 2°43.379 26.1 12.4 24 31.7
2012-04-11 08:27:52 51°30.287 2°43.479 18.9 12.5 18 33.2
2012-04-11 08:28:52 51°30.487 2°43.563 18.8 12.3 16 29.3
2012-04-11 08:29:51 51°30.683 2°43.65 24.6 12.1 17 32.9
2012-04-11 08:30:52 51°30.882 2°43.766 24 12.6 21 34
2012-04-11 08:31:51 51°31.074 2°43.866 20.9 12.5 15 33.2
2012-04-11 08:32:52 51°31.278 2°43.963 23.3 12.3 15 31.4
2012-04-11 08:33:52 51°31.476 2°44.067 21.9 12.8 16 34.1
2012-04-11 08:34:51 51°31.668 2°44.174 25.2 12.3 22 33.2
2012-04-11 08:35:52 51°31.869 2°44.271 20.6 12.7 15 33.6
2012-04-11 08:36:52 51°32.068 2°44.36 19.9 12.4 15 33.4
2012-04-11 08:37:52 51°32.266 2°44.454 22 12.5 17 31
2012-04-11 08:38:51 51°32.457 2°44.556 22.6 12.3 17 31
2012-04-11 08:39:52 51°32.652 2°44.663 23.7 12 21 30.4
2012-04-11 08:40:51 51°32.846 2°44.763 22.7 12.6 18 28.7
2012-04-11 08:41:52 51°33.048 2°44.852 16.1 12.3 15 28.1
2012-04-11 08:42:52 51°33.255 2°44.901 11 12.6 6 27.5
2012-04-11 08:43:51 51°33.457 2°44.959 14.4 12.5 11 26.5
2012-04-11 08:44:52 51°33.669 2°45.023 15.9 12.9 10 23.4
2012-04-11 08:45:52 51°33.877 2°45.096 17 12.7 13 20.9
2012-04-11 08:46:51 51°34.08 2°45.157 18.3 12.5 15 14.7
2012-04-11 08:47:51 51°34.278 2°45.266 27.1 12.6 21 14.7
2012-04-11 08:48:51 51°34.476 2°45.368 24.1 12.7 12 13.5
2012-04-11 08:49:51 51°34.679 2°45.448 19.6 12.5 12 12.5
2012-04-11 08:50:51 51°34.879 2°45.531 19.9 12.3 16 15
2012-04-11 08:51:51 51°35.075 2°45.623 21.1 12.2 14 14.5
2012-04-11 08:52:51 51°35.272 2°45.706 22.8 12 11 17.8
2012-04-11 08:53:51 51°35.464 2°45.811 25.9 12.3 19 19.2
2012-04-11 08:54:51 51°35.654 2°45.925 25.6 11.9 22 20
2012-04-11 08:55:51 51°35.847 2°46.031 23.3 12.2 16 20.7
2012-04-11 08:56:51 51°36.039 2°46.131 23.1 12.1 17 21.3
2012-04-11 08:57:51 51°36.224 2°46.253 29.4 12 22 21.9
2012-04-11 08:58:51 51°36.407 2°46.389 32 11.9 27 21.4
2012-04-11 08:59:51 51°36.591 2°46.514 25.7 12.2 18 23
2012-04-11 09:00:51 51°36.786 2°46.617 27.7 12.1 23 22
2012-04-11 09:01:51 51°36.972 2°46.733 29.1 12.1 22 21.1
2012-04-11 09:02:51 51°37.162 2°46.842 25.5 12.2 21 22.8
2012-04-11 09:03:51 51°37.354 2°46.958 24.4 12 20 23.9
2012-04-11 09:04:51 51°37.54 2°47.08 29.1 12.1 21 19.2
2012-04-11 09:05:51 51°37.731 2°47.201 28.9 12.2 23 21.2
2012-04-11 09:06:51 51°37.914 2°47.329 28.8 12.2 21 18.6
2012-04-11 09:07:51 51°38.104 2°47.444 26.2 12 24 22.1
2012-04-11 09:08:51 51°38.286 2°47.577 27.5 12.2 24 20.8
2012-04-11 09:09:51 51°38.472 2°47.695 29.3 12 23 21.3
2012-04-11 09:10:51 51°38.659 2°47.813 26.7 11.9 18 19.7
2012-04-11 09:11:51 51°38.847 2°47.918 25.3 11.9 20 21.9
2012-04-11 09:12:51 51°39.032 2°48.032 23.3 12.1 18 21.7
2012-04-11 09:13:51 51°39.217 2°48.149 27.7 11.9 26 22.2
2012-04-11 09:14:51 51°39.397 2°48.268 24.4 11.7 19 21.4
2012-04-11 09:15:51 51°39.585 2°48.378 26 12.1 20 21
2012-04-11 09:16:51 51°39.774 2°48.484 24.8 11.8 19 21.4
2012-04-11 09:17:51 51°39.957 2°48.582 27.1 11.8 19 19.6
2012-04-11 09:18:51 51°40.14 2°48.691 26 11.9 20 22.7
2012-04-11 09:19:51 51°40.325 2°48.815 24.1 12.1 21 26.6
2012-04-11 09:20:51 51°40.512 2°48.929 26.5 12.1 24 25.6
2012-04-11 09:21:51 51°40.698 2°49.037 25.2 12.2 20 27.2
2012-04-11 09:22:51 51°40.885 2°49.155 28.5 12 22 25.7
2012-04-11 09:23:51 51°41.073 2°49.263 27.3 11.8 24 27.3
2012-04-11 09:24:51 51°41.261 2°49.372 24.5 11.9 21 29.6
2012-04-11 09:25:51 51°41.447 2°49.476 23.8 12.2 18 30.5
2012-04-11 09:26:51 51°41.634 2°49.586 29.8 11.9 25 29.3
2012-04-11 09:27:51 51°41.794 2°49.758 39.3 11.5 35 30.3
2012-04-11 09:28:51 51°41.965 2°49.765 333.2 11.3 320 30.7
2012-04-11 09:29:51 51°42.069 2°49.488 303.9 12.5 297 29
2012-04-11 09:30:51 51°42.141 2°49.174 284.3 12.3 277 28
2012-04-11 09:31:51 51°42.127 2°48.837 256.5 12.5 251 28.3
2012-04-11 09:32:51 51°41.964 2°48.663 197.4 12.6 201 29.7
2012-04-11 09:33:51 51°41.769 2°48.531 200.4 12.8 202 24.7
2012-04-11 09:34:51 51°41.573 2°48.396 201.6 13 202 28.9
2012-04-11 09:35:51 51°41.376 2°48.266 202.1 12.7 203 26.7
2012-04-11 09:36:51 51°41.179 2°48.137 201.1 12.9 202 28.2
2012-04-11 09:37:51 51°40.98 2°48.009 201.8 12.9 204 23.2
2012-04-11 09:38:51 51°40.781 2°47.887 199.2 12.9 199 28.7
2012-04-11 09:39:51 51°40.58 2°47.77 199.9 13 202 28.1
2012-04-11 09:40:51 51°40.378 2°47.654 198 12.9 201 25.3
2012-04-11 09:41:51 51°40.178 2°47.53 200.7 12.9 201 23
2012-04-11 09:42:51 51°39.976 2°47.408 197.7 12.9 199 23.3
2012-04-11 09:43:51 51°39.775 2°47.284 200.1 13 198 24.2
2012-04-11 09:44:51 51°39.573 2°47.165 200.8 12.9 200 25.2
2012-04-11 09:45:52 51°39.367 2°47.044 200.3 13 201 26.8
2012-04-11 09:46:51 51°39.168 2°46.924 199.7 12.9 200 27.7
2012-04-11 09:47:52 51°38.962 2°46.816 197 12.8 198 28.9
2012-04-11 09:48:52 51°38.756 2°46.71 196.9 13 200 30.7
2012-04-11 09:49:52 51°38.554 2°46.595 199.5 13 200 29.6
2012-04-11 09:50:51 51°38.355 2°46.482 200.2 12.9 200 32.5
2012-04-11 09:51:51 51°38.153 2°46.361 200.2 13 200 35.7
2012-04-11 09:52:52 51°37.945 2°46.246 198.1 12.9 199 33.2
2012-04-11 09:53:52 51°37.741 2°46.126 201.9 13.1 203 33.3
2012-04-11 09:54:52 51°37.544 2°45.983 204 13 205 34
2012-04-11 09:55:52 51°37.343 2°45.848 201.1 13.1 201 32.8
2012-04-11 09:56:52 51°37.138 2°45.732 198.9 13.2 200 35.6
2012-04-11 09:57:52 51°36.935 2°45.599 203.6 13.2 203 34
2012-04-11 09:58:52 51°36.734 2°45.46 198.3 13.1 198 33.6
2012-04-11 09:59:52 51°36.525 2°45.356 197.3 13.3 200 34.2
2012-04-11 10:00:52 51°36.321 2°45.228 201.1 13.2 203 32.5
2012-04-11 10:01:51 51°36.121 2°45.095 199.5 13.2 200 33.1
2012-04-11 10:02:52 51°35.909 2°44.985 195.9 13.2 197 33
2012-04-11 10:03:51 51°35.706 2°44.867 201.2 13.3 202 32
2012-04-11 10:04:52 51°35.499 2°44.726 200.7 13.3 202 35
2012-04-11 10:05:52 51°35.291 2°44.61 197.6 13.2 199 31.9
2012-04-11 10:06:52 51°35.086 2°44.482 201.8 13.2 203 29.7
2012-04-11 10:07:52 51°34.886 2°44.33 203.9 13.3 205 29.8
2012-04-11 10:08:52 51°34.683 2°44.192 199.1 13.3 201 31.7
2012-04-11 10:09:52 51°34.475 2°44.073 198.7 13.3 200 31.1
2012-04-11 10:10:52 51°34.272 2°43.932 200.5 13.3 201 29.5
2012-04-11 10:11:52 51°34.067 2°43.802 203.2 13.3 204 29.9
2012-04-11 10:12:52 51°33.87 2°43.636 208.1 13.3 207 31.1
2012-04-11 10:13:52 51°33.692 2°43.424 226.9 13.4 228 32.4
2012-04-11 10:14:52 51°33.593 2°43.112 254.2 13.1 252 33.3
2012-04-11 10:15:52 51°33.546 2°42.771 264.9 13 260 36.7
2012-04-11 10:16:52 51°33.505 2°42.427 263.6 13 258 36.9
2012-04-11 10:17:52 51°33.46 2°42.118 261.3 10.9 257 34.9
2012-04-11 10:18:52 51°33.414 2°41.847 259.4 10.3 255 35.6
2012-04-11 10:19:52 51°33.373 2°41.583 268 10.1 262 37
2012-04-11 10:20:52 51°33.39 2°41.324 296.3 9.6 289 37.6
2012-04-11 10:21:52 51°33.457 2°41.122 318.8 7.4 306 39.4
2012-04-11 10:22:52 51°33.512 2°41.016 330.6 3.9 308 38.7
2012-04-11 10:23:52 51°33.539 2°40.943 324.5 2.6 296 39.1
2012-04-11 10:24:52 51°33.562 2°40.9 1.1 1.7 341 39
2012-04-11 10:25:52 51°33.626 2°40.929 21.7 7.4 15 40.1
2012-04-11 10:26:52 51°33.778 2°40.985 18.7 10.7 12 40
2012-04-11 10:27:52 51°33.956 2°41.055 20.4 10.9 15 39.1
2012-04-11 10:28:52 51°34.124 2°41.149 25.3 10.8 18 39.1
2012-04-11 10:29:52 51°34.287 2°41.263 27 10.8 24 39.1
2012-04-11 10:30:52 51°34.451 2°41.366 23.2 10.6 21 39.2
2012-04-11 10:31:52 51°34.615 2°41.468 25.4 10.8 19 40.3
2012-04-11 10:32:52 51°34.781 2°41.568 23.7 10.5 20 41.1
2012-04-11 10:33:51 51°34.944 2°41.666 24 10.6 20 40.2
2012-04-11 10:34:52 51°35.112 2°41.771 22.1 10.6 20 39.4
2012-04-11 10:35:52 51°35.28 2°41.864 24 10.6 17 39.3
2012-04-11 10:36:52 51°35.443 2°41.972 24.7 10.9 22 41.6
2012-04-11 10:37:52 51°35.61 2°42.07 23.6 10.6 18 40.6
2012-04-11 10:38:52 51°35.775 2°42.175 23.6 10.7 16 42.5
2012-04-11 10:39:52 51°35.942 2°42.273 22.2 10.5 20 40.4
2012-04-11 10:40:52 51°36.11 2°42.376 25.1 10.6 18 42.5
2012-04-11 10:41:52 51°36.275 2°42.479 22 10.8 21 40.7
2012-04-11 10:42:52 51°36.439 2°42.585 25.8 10.6 25 38.8
2012-04-11 10:43:52 51°36.604 2°42.694 26.3 10.8 19 38.2
2012-04-11 10:44:52 51°36.77 2°42.791 21.1 10.6 18 37.9
2012-04-11 10:45:52 51°36.934 2°42.886 24.6 10.6 24 36.8
2012-04-11 10:46:52 51°37.096 2°42.987 24 10.4 19 37.7
2012-04-11 10:47:52 51°37.257 2°43.089 23.3 10.5 17 37.4
2012-04-11 10:48:52 51°37.426 2°43.168 19.9 10.5 16 36.2
2012-04-11 10:49:52 51°37.597 2°43.235 17.5 11 10 37.7
2012-04-11 10:50:52 51°37.771 2°43.308 17.9 10.6 14 35.6
2012-04-11 10:51:52 51°37.942 2°43.394 23.6 10.6 17 36.3
2012-04-11 10:52:52 51°38.111 2°43.486 21.9 10.8 18 33.5
2012-04-11 10:53:52 51°38.28 2°43.572 20.1 10.7 15 37.5
2012-04-11 10:54:52 51°38.449 2°43.654 18.4 10.6 17 39.3
2012-04-11 10:55:52 51°38.617 2°43.732 21.1 10.3 16 38.2
2012-04-11 10:56:52 51°38.789 2°43.801 19 10.8 12 38.4
2012-04-11 10:57:52 51°38.962 2°43.873 18.5 10.8 16 34.6
2012-04-11 10:58:52 51°39.132 2°43.952 18.8 10.7 14 39
2012-04-11 10:59:52 51°39.302 2°44.018 20 10.4 15 37.3
2012-04-11 11:00:52 51°39.471 2°44.085 20.1 10.4 17 36.3
2012-04-11 11:01:52 51°39.637 2°44.16 22.2 10.4 16 37.2
2012-04-11 11:02:52 51°39.803 2°44.242 23.9 10.5 17 38.5
2012-04-11 11:03:52 51°39.973 2°44.32 21.1 10.4 15 34.6
2012-04-11 11:04:52 51°40.141 2°44.389 22.9 10.5 13 37.7
2012-04-11 11:05:52 51°40.31 2°44.459 21.2 10.6 19 35.3
2012-04-11 11:06:52 51°40.478 2°44.525 18.4 10.5 10 35.7
2012-04-11 11:07:52 51°40.646 2°44.602 23.5 10.3 20 38.2
2012-04-11 11:08:52 51°40.81 2°44.696 23.3 10.8 20 39.3
2012-04-11 11:09:52 51°40.981 2°44.771 22.7 10.4 19 37.8
2012-04-11 11:10:52 51°41.148 2°44.849 21.4 10.4 17 37.3
2012-04-11 11:11:52 51°41.315 2°44.933 22.1 10.5 15 38.8
2012-04-11 11:12:52 51°41.484 2°45.011 20.5 10.9 13 39
2012-04-11 11:13:52 51°41.652 2°45.1 25 10.7 19 40
2012-04-11 11:14:52 51°41.819 2°45.175 20.4 10.3 15 36
2012-04-11 11:15:52 51°41.983 2°45.272 26.9 10.6 23 34.4
2012-04-11 11:16:52 51°42.146 2°45.384 25.3 10.4 19 37
2012-04-11 11:17:52 51°42.31 2°45.484 26.4 10.2 24 41.2
2012-04-11 11:18:52 51°42.473 2°45.594 28.2 10.5 23 36.7
2012-04-11 11:19:52 51°42.638 2°45.695 25.5 10.5 19 37.7
2012-04-11 11:20:52 51°42.802 2°45.797 27.2 10.4 20 35.3
2012-04-11 11:21:52 51°42.965 2°45.899 26.4 10.6 22 39
2012-04-11 11:22:52 51°43.129 2°45.991 24.6 10.3 17 30.9
2012-04-11 11:23:52 51°43.295 2°45.992 346.3 10.7 329 38.5
2012-04-11 11:24:52 51°43.418 2°45.753 320.3 11.8 310 33.4
2012-04-11 11:25:52 51°43.552 2°45.518 324.5 11.5 316 36.3
2012-04-11 11:26:52 51°43.691 2°45.286 325.5 12.2 315 39.3
2012-04-11 11:27:52 51°43.827 2°45.058 324.1 11.9 313 38.6
2012-04-11 11:28:52 51°43.963 2°44.823 323.8 12.1 316 35.3
2012-04-11 11:29:52 51°44.097 2°44.591 325.9 11.7 317 36
2012-04-11 11:30:52 51°44.233 2°44.364 324.5 11.9 310 37.3
2012-04-11 11:31:52 51°44.292 2°44.069 273.9 12.4 262 38.2
2012-04-11 11:32:51 51°44.161 2°43.822 204.5 13.1 202 38.2
2012-04-11 11:33:52 51°43.938 2°43.773 177.3 13.6 180 37.6
2012-04-11 11:34:52 51°43.715 2°43.748 185.5 13.6 189 37.7
2012-04-11 11:35:52 51°43.494 2°43.668 192.4 13.5 193 38.8
2012-04-11 11:36:52 51°43.271 2°43.593 188.2 13.7 191 32.4
2012-04-11 11:37:52 51°43.055 2°43.514 191.8 13.2 194 34.2
2012-04-11 11:38:52 51°42.842 2°43.439 188.8 13.2 192 36.7
2012-04-11 11:39:52 51°42.629 2°43.361 192.7 13.1 196 36.9
2012-04-11 11:40:52 51°42.42 2°43.244 198.3 13.4 200 34.6
2012-04-11 11:41:52 51°42.21 2°43.138 193.5 13.1 195 33.7
2012-04-11 11:42:52 51°41.996 2°43.044 193.8 13.5 195 32.5
2012-04-11 11:43:52 51°41.786 2°42.938 198.5 13.2 200 35
2012-04-11 11:44:52 51°41.576 2°42.817 198.2 13.4 200 33.7
2012-04-11 11:45:52 51°41.365 2°42.707 193.7 13.4 196 34.4
2012-04-11 11:46:52 51°41.153 2°42.619 193 13.2 195 35.4
2012-04-11 11:47:52 51°40.944 2°42.51 196.6 13.1 199 33.8
2012-04-11 11:48:52 51°40.734 2°42.397 195.7 13.3 197 30.9
2012-04-11 11:49:52 51°40.523 2°42.291 194 13.2 195 35
2012-04-11 11:50:51 51°40.315 2°42.196 194.1 13.2 197 32.7
2012-04-11 11:51:52 51°40.101 2°42.083 196.2 13.4 199 29.6
2012-04-11 11:52:52 51°39.892 2°41.967 197.5 13.1 200 24.5
2012-04-11 11:53:51 51°39.685 2°41.861 193.7 13.2 196 30.7
2012-04-11 11:54:52 51°39.469 2°41.763 193.5 13.3 196 27.6
2012-04-11 11:55:52 51°39.258 2°41.655 196.8 13.6 200 25.4
2012-04-11 11:56:52 51°39.05 2°41.529 198.3 13.2 200 23
2012-04-11 11:57:52 51°38.84 2°41.406 195.9 13.5 200 18.1
2012-04-11 11:58:52 51°38.628 2°41.305 193.8 13.3 197 23.8
2012-04-11 11:59:52 51°38.418 2°41.194 193.9 13.2 197 25.7
2012-04-11 12:00:52 51°38.209 2°41.086 196.7 13.1 200 26.1
2012-04-11 12:01:52 51°38.002 2°40.959 195.4 13.2 197 20.5
2012-04-11 12:02:52 51°37.794 2°40.86 192.3 13 195 22.4
2012-04-11 12:03:52 51°37.587 2°40.741 198.4 13.2 202 21.1
2012-04-11 12:04:52 51°37.381 2°40.619 195.2 13.1 199 22.2
2012-04-11 12:05:51 51°37.177 2°40.522 191.9 13 196 23.5
2012-04-11 12:06:52 51°36.967 2°40.409 197.5 13.2 200 23.9
2012-04-11 12:07:52 51°36.761 2°40.293 194.7 13 197 25
2012-04-11 12:08:52 51°36.553 2°40.202 189.2 12.9 194 25.7
2012-04-11 12:09:52 51°36.342 2°40.116 192.2 13.3 196 26.6
2012-04-11 12:10:52 51°36.137 2°40.01 195 13 198 27.3
2012-04-11 12:11:52 51°35.931 2°39.903 192.6 13.1 195 28.5
2012-04-11 12:12:52 51°35.721 2°39.825 189.6 13 193 29.7
2012-04-11 12:13:52 51°35.514 2°39.731 193.4 12.9 196 30.6
2012-04-11 12:14:52 51°35.307 2°39.638 195.8 12.8 199 28.6
2012-04-11 12:15:52 51°35.104 2°39.525 196.3 13 198 29.4
2012-04-11 12:16:52 51°34.898 2°39.422 192.2 13 194 29.7
2012-04-11 12:17:52 51°34.689 2°39.344 191 13 195 28.9
2012-04-11 12:18:52 51°34.483 2°39.251 191.1 12.7 195 28.2
2012-04-11 12:19:52 51°34.277 2°39.146 196.1 12.9 199 28.7
2012-04-11 12:20:52 51°34.072 2°39.039 195 13 197 27.5
2012-04-11 12:21:52 51°33.863 2°38.955 190 13 194 25
2012-04-11 12:22:52 51°33.658 2°38.85 199.3 13 201 23.8
2012-04-11 12:23:52 51°33.455 2°38.727 198.7 12.9 201 24.6
2012-04-11 12:24:52 51°33.249 2°38.622 192.9 12.9 196 22.7
2012-04-11 12:25:52 51°33.043 2°38.516 199 13.1 201 20.3
2012-04-11 12:26:52 51°32.842 2°38.386 199.2 13.1 201 20.3
2012-04-11 12:27:52 51°32.637 2°38.277 192.6 13 195 18.8
2012-04-11 12:28:52 51°32.429 2°38.178 195.6 13.2 199 18.9
2012-04-11 12:29:52 51°32.227 2°38.05 200.3 13.1 202 18.4
2012-04-11 12:30:52 51°32.021 2°37.941 192.4 13 195 17.4
2012-04-11 12:31:52 51°31.815 2°37.829 198.7 13.2 203 17.4
2012-04-11 12:32:52 51°31.613 2°37.695 199.4 13.1 202 18.1
2012-04-11 12:33:52 51°31.403 2°37.592 190.5 13.1 194 19.1
2012-04-11 12:34:52 51°31.191 2°37.509 189.2 13.1 194 19.4
2012-04-11 12:35:52 51°30.981 2°37.403 196.8 13.4 200 20.4
2012-04-11 12:36:52 51°30.773 2°37.287 195.2 13.2 197 22.1
2012-04-11 12:37:52 51°30.56 2°37.2 191.6 13.3 195 24
2012-04-11 12:38:52 51°30.35 2°37.101 193.8 13.3 197 25.9
2012-04-11 12:39:52 51°30.141 2°36.998 192.4 13.1 194 22.8
2012-04-11 12:40:52 51°29.929 2°36.915 189.8 13.1 193 27.8
2012-04-11 12:41:51 51°29.721 2°36.828 195.2 13.2 198 28.7
2012-04-11 12:42:52 51°29.507 2°36.719 193.2 13.1 194 28.9
2012-04-11 12:43:52 51°29.295 2°36.681 170.2 12.6 173 25.1
2012-04-11 12:44:52 51°29.114 2°36.823 136.1 12.2 144 26.6
2012-04-11 12:45:51 51°28.961 2°37.026 133.6 12.1 141 33.1
2012-04-11 12:46:52 51°28.8 2°37.233 133.5 12.1 142 36.9
2012-04-11 12:47:52 51°28.647 2°37.436 133.2 11.3 142 39.2
2012-04-11 12:48:52 51°28.514 2°37.605 132.2 9 141 36.5
2012-04-11 12:49:52 51°28.403 2°37.722 150.9 7.6 159 37.2
2012-04-11 12:50:52 51°28.282 2°37.793 151.7 8 159 38.9
2012-04-11 12:51:52 51°28.162 2°37.875 146.7 8.2 153 37.6
2012-04-11 12:52:52 51°28.039 2°38.005 129 8.8 134 39.3
2012-04-11 12:53:52 51°27.921 2°38.205 129.2 11 134 35.3
2012-04-11 12:54:52 51°27.772 2°38.408 136.5 12.1 143 33.5
2012-04-11 12:55:52 51°27.622 2°38.618 131.4 11.7 137 34.3
2012-04-11 12:56:52 51°27.483 2°38.841 126.3 12 132 34.3
2012-04-11 12:57:52 51°27.354 2°39.072 126.2 11.8 132 35.7
2012-04-11 12:58:52 51°27.221 2°39.301 128.8 11.8 135 35
2012-04-11 12:59:52 51°27.083 2°39.525 126.4 11.8 132 33.6
2012-04-11 13:00:52 51°26.954 2°39.76 125.6 11.6 129 36.4
2012-04-11 13:01:52 51°26.831 2°40 123.3 11.6 129 33
2012-04-11 13:02:52 51°26.711 2°40.244 123.8 11.6 128 31.7
2012-04-11 13:03:52 51°26.587 2°40.485 126.6 11.7 131 32.5
2012-04-11 13:04:52 51°26.461 2°40.72 125.5 11.6 131 31.7
2012-04-11 13:05:52 51°26.333 2°40.949 127.7 11.5 132 31.3
2012-04-11 13:06:52 51°26.208 2°41.177 124.2 11.4 128 30.3
2012-04-11 13:07:52 51°26.087 2°41.408 127.8 11.3 132 30.4
2012-04-11 13:08:52 51°25.942 2°41.608 137.7 11.7 142 29
2012-04-11 13:09:51 51°25.795 2°41.8 135.5 11.6 139 29.5
2012-04-11 13:10:52 51°25.643 2°42 138.1 11.7 143 26.4
2012-04-11 13:11:52 51°25.485 2°42.182 138.4 11.7 143 26.6
2012-04-11 13:12:52 51°25.329 2°42.367 139.6 11.7 144 27.5
2012-04-11 13:13:52 51°25.179 2°42.566 134.4 11.8 139 26.8
2012-04-11 13:14:52 51°25.03 2°42.77 136 11.8 140 26.4
2012-04-11 13:15:52 51°24.874 2°42.964 139.4 11.9 142 25.9
2012-04-11 13:16:52 51°24.72 2°43.162 138.7 11.9 142 25.6
2012-04-11 13:17:52 51°24.566 2°43.361 137.5 11.9 139 24.3
2012-04-11 13:18:52 51°24.42 2°43.573 134.2 11.9 137 26.1
2012-04-11 13:19:52 51°24.27 2°43.776 143.1 11.8 147 28
2012-04-11 13:20:52 51°24.099 2°43.922 149.2 11.4 152 28.7
2012-04-11 13:21:52 51°23.932 2°44.065 147.4 11.3 151 27.9
2012-04-11 13:22:52 51°23.774 2°44.225 142.6 11.2 146 28.5
2012-04-11 13:23:52 51°23.616 2°44.388 146.2 11.4 150 29.1
2012-04-11 13:24:52 51°23.449 2°44.535 147 11.5 149 29.2
2012-04-11 13:25:52 51°23.285 2°44.694 145 11.5 148 27.9
2012-04-11 13:26:52 51°23.129 2°44.873 139.6 11.6 142 26.5
2012-04-11 13:27:51 51°22.978 2°45.057 140.9 11.6 143 28.3
2012-04-11 13:28:52 51°22.814 2°45.233 145.3 11.7 148 26.3
2012-04-11 13:29:52 51°22.653 2°45.408 141.9 11.8 142 28.1
2012-04-11 13:30:52 51°22.498 2°45.604 143.1 11.9 143 25.9
2012-04-11 13:31:51 51°22.341 2°45.791 141.4 12 141 24.3
2012-04-11 13:32:52 51°22.18 2°45.987 140.2 12 140 23
2012-04-11 13:33:52 51°22.022 2°46.186 144.1 12 145 23.2
2012-04-11 13:34:52 51°21.861 2°46.376 143.2 12.1 143 25.2
2012-04-11 13:35:52 51°21.705 2°46.578 140.4 12 140 27.1
2012-04-11 13:36:52 51°21.548 2°46.776 144.4 12.2 143 27.1
2012-04-11 13:37:52 51°21.389 2°46.968 141.7 11.9 140 25.7
2012-04-11 13:38:51 51°21.241 2°47.175 140.5 12.1 139 25.7
2012-04-11 13:39:52 51°21.089 2°47.389 139.8 12.1 139 20.8
2012-04-11 13:40:52 51°20.935 2°47.588 144.2 11.9 143 21.8
2012-04-11 13:41:52 51°20.775 2°47.774 144.7 12 143 19.9
2012-04-11 13:42:52 51°20.619 2°47.972 139 12.1 138 22.4
2012-04-11 13:43:52 51°20.467 2°48.179 141.4 11.9 140 23.7
2012-04-11 13:44:52 51°20.314 2°48.378 145 11.7 144 24.6
2012-04-11 13:45:51 51°20.159 2°48.557 145.4 11.7 145 24.8
2012-04-11 13:46:52 51°20.008 2°48.758 138.6 11.7 138 24.3
2012-04-11 13:47:52 51°19.861 2°48.962 140.9 11.8 140 22.3
2012-04-11 13:48:52 51°19.705 2°49.156 145.3 11.9 143 20.1
2012-04-11 13:49:52 51°19.547 2°49.347 143.1 11.9 141 17.5
2012-04-11 13:50:52 51°19.401 2°49.565 135.1 12.1 134 16.3
2012-04-11 13:51:52 51°19.256 2°49.788 139.8 12.1 137 14.4
2012-04-11 13:52:51 51°19.11 2°50.002 141.6 12.1 139 14
2012-04-11 13:53:52 51°18.957 2°50.221 139.5 12 136 15.3
2012-04-11 13:54:52 51°18.817 2°50.454 137.1 12.1 135 16.9
2012-04-11 13:55:52 51°18.661 2°50.654 145.2 11.9 144 17
2012-04-11 13:56:52 51°18.508 2°50.854 140.2 12.1 138 16.6
2012-04-11 13:57:52 51°18.353 2°51.054 146.4 11.9 145 16
2012-04-11 13:58:52 51°18.19 2°51.234 148.9 12 147 14.9
2012-04-11 13:59:52 51°18.031 2°51.425 144.1 12 141 13.9
2012-04-11 14:00:52 51°17.876 2°51.621 145.7 11.7 142 12.9
2012-04-11 14:01:52 51°17.715 2°51.811 144.4 12 141 12.7
2012-04-11 14:02:52 51°17.563 2°52.01 147.7 11.8 144 13.2
2012-04-11 14:03:51 51°17.402 2°52.176 151.4 11.7 149 13.9
2012-04-11 14:04:52 51°17.235 2°52.344 149.6 11.8 145 13
2012-04-11 14:05:52 51°17.071 2°52.51 156.1 11.5 153 12.5
2012-04-11 14:06:52 51°16.896 2°52.642 159.2 11.7 155 12.5
2012-04-11 14:07:52 51°16.727 2°52.795 153.8 11.7 150 13.4
2012-04-11 14:08:52 51°16.553 2°52.935 160.5 11.7 156 14.6
2012-04-11 14:09:52 51°16.377 2°53.068 156.8 11.8 150 15.1
2012-04-11 14:10:52 51°16.206 2°53.214 161.2 11.7 155 15.2
2012-04-11 14:11:52 51°16.029 2°53.339 163.8 11.5 158 14.8
2012-04-11 14:12:51 51°15.86 2°53.48 156.1 11.9 151 15
2012-04-11 14:13:52 51°15.685 2°53.624 160.3 11.4 152 14.8
2012-04-11 14:14:52 51°15.519 2°53.782 152.5 11.7 144 14.6
2012-04-11 14:15:52 51°15.362 2°53.966 151.3 11.8 144 14.4
2012-04-11 14:16:52 51°15.213 2°54.17 144.6 12 137 14.1
2012-04-11 14:17:52 51°15.073 2°54.391 142.1 11.7 134 14.2
2012-04-11 14:18:52 51°14.93 2°54.603 147.5 11.7 139 14.5
2012-04-11 14:19:52 51°14.779 2°54.797 151.1 11.5 143 14.3
2012-04-11 14:20:52 51°14.624 2°54.98 156.9 11.4 147 14.6
2012-04-11 14:21:51 51°14.458 2°55.113 166.5 11.2 162 13.2
2012-04-11 14:22:55 51°14.288 2°55.25 147.2 9.6 148 -999
2012-04-11 14:23:55 51°14.162 2°55.386 146.7 8.9 149 13.2
2012-04-11 14:24:55 51°14.039 2°55.478 156.3 7.1 157 13.5
2012-04-11 14:25:55 51°13.943 2°55.546 156.1 5.9 156 13.6
2012-04-11 14:26:53 51°13.86 2°55.607 155.2 5.6 154 13.7
2012-04-11 14:27:52 51°13.783 2°55.678 144.5 5.3 144 13.9
2012-04-11 14:28:52 51°13.717 2°55.778 131.6 5.5 131 14.1
2012-04-11 14:29:55 51°13.664 2°55.895 121.6 4.7 119 -999
2012-04-11 14:30:55 51°13.643 2°55.988 105 2.9 104 -999